createdAt,value
2023-01-11T00:03:29.915Z,101086.16
2023-01-11T00:07:18.702Z,101085.66
2023-01-11T00:11:07.536Z,101085.49
2023-01-11T00:14:56.156Z,101084.95
2023-01-11T00:18:44.805Z,101084.97
2023-01-11T00:22:33.470Z,101092.23
2023-01-11T00:26:22.636Z,101092.23
2023-01-11T00:30:11.295Z,101091.73
2023-01-11T00:33:59.931Z,101093.12
2023-01-11T00:37:41.175Z,101081.70
2023-01-11T00:41:28.341Z,101081.18
2023-01-11T00:45:15.023Z,101086.88
2023-01-11T00:49:03.714Z,101087.92
2023-01-11T00:52:52.351Z,101092.63
2023-01-11T00:56:30.884Z,101105.84
2023-01-11T01:00:19.555Z,101109.31
2023-01-11T01:04:00.946Z,101104.47
2023-01-11T01:07:49.652Z,101103.27
2023-01-11T01:11:38.363Z,101109.55
2023-01-11T01:15:27.059Z,101111.47
2023-01-11T01:19:19.320Z,101111.13
2023-01-11T01:22:40.647Z,101115.64
2023-01-11T01:26:27.841Z,101107.00
2023-01-11T01:30:06.407Z,101108.23
2023-01-11T01:33:55.053Z,101114.85
2023-01-11T01:37:43.810Z,101115.90
2023-01-11T01:41:32.475Z,101120.61
2023-01-11T01:45:37.914Z,101117.20
2023-01-11T01:49:44.537Z,101113.93
2023-01-11T01:53:33.223Z,101115.34
2023-01-11T01:57:30.769Z,101117.13
2023-01-11T02:01:19.589Z,101114.88
2023-01-11T02:05:07.388Z,101113.70
2023-01-11T02:08:59.079Z,101112.33
2023-01-11T02:12:47.801Z,101107.69
2023-01-11T02:16:36.465Z,101100.27
2023-01-11T02:20:27.990Z,101104.27
2023-01-11T02:24:31.503Z,101102.75
2023-01-11T02:28:38.379Z,101098.25
2023-01-11T02:32:35.815Z,101097.05
2023-01-11T02:36:36.579Z,101099.13
2023-01-11T02:40:31.119Z,101096.39
2023-01-11T02:44:36.483Z,101091.38
2023-01-11T02:48:37.021Z,101092.94
2023-01-11T02:52:25.727Z,101088.77
2023-01-11T02:56:14.374Z,101085.83
2023-01-11T03:00:03.082Z,101093.48
2023-01-11T03:03:47.665Z,101094.50
2023-01-11T03:07:54.195Z,101101.27
2023-01-11T03:11:50.956Z,101094.54
2023-01-11T03:16:03.716Z,101091.79
2023-01-11T03:19:53.861Z,101089.20
2023-01-11T03:23:47.124Z,101091.10
2023-01-11T03:27:36.649Z,101099.09
2023-01-11T03:31:33.019Z,101102.92
2023-01-11T03:35:27.366Z,101097.73
2023-01-11T03:39:18.769Z,101093.59
2023-01-11T03:43:05.955Z,101083.00
2023-01-11T03:47:00.486Z,101078.33
2023-01-11T03:50:52.008Z,101076.45
2023-01-11T03:54:33.790Z,101075.95
2023-01-11T03:58:25.244Z,101077.17
2023-01-11T04:02:13.942Z,101081.34
2023-01-11T04:06:02.691Z,101078.05
2023-01-11T04:09:51.326Z,101082.23
2023-01-11T04:13:40.119Z,101079.97
2023-01-11T04:17:28.850Z,101076.15
2023-01-11T04:21:17.652Z,101074.27
2023-01-11T04:24:55.259Z,101070.98
2023-01-11T04:28:43.907Z,101068.73
2023-01-11T04:32:32.612Z,101072.18
2023-01-11T04:36:19.996Z,101071.14
2023-01-11T04:39:58.418Z,101067.14
2023-01-11T04:43:47.037Z,101067.30
2023-01-11T04:47:35.734Z,101068.69
2023-01-11T04:51:27.194Z,101067.98
2023-01-11T04:55:15.854Z,101067.29
2023-01-11T04:59:04.537Z,101066.23
2023-01-11T05:02:53.262Z,101067.62
2023-01-11T05:06:40.734Z,101076.46
2023-01-11T05:10:29.470Z,101074.70
2023-01-11T05:14:16.780Z,101073.52
2023-01-11T05:18:05.457Z,101071.42
2023-01-11T05:21:54.168Z,101083.42
2023-01-11T05:25:42.969Z,101083.77
2023-01-11T05:29:31.698Z,101084.79
2023-01-11T05:33:20.389Z,101081.48
2023-01-11T05:37:09.250Z,101077.48
2023-01-11T05:40:58.298Z,101074.17
2023-01-11T05:44:45.444Z,101065.14
2023-01-11T05:48:34.139Z,101066.34
2023-01-11T05:52:22.940Z,101063.73
2023-01-11T05:55:51.487Z,101057.84
2023-01-11T05:59:33.381Z,101055.91
2023-01-11T06:03:04.358Z,101051.94
2023-01-11T06:06:53.422Z,101049.15
2023-01-11T06:10:42.208Z,101049.31
2023-01-11T06:14:30.888Z,101050.86
2023-01-11T06:18:12.144Z,101052.59
2023-01-11T06:21:59.726Z,101050.85
2023-01-11T06:25:48.549Z,101051.89
2023-01-11T06:29:07.504Z,101051.50
2023-01-11T06:32:08.708Z,101050.45
2023-01-11T06:35:51.208Z,101046.10
2023-01-11T06:39:29.851Z,101047.98
2023-01-11T06:43:08.442Z,101043.12
2023-01-11T06:46:47.052Z,101041.05
2023-01-11T06:50:28.352Z,101040.52
2023-01-11T06:53:47.234Z,101042.74
2023-01-11T06:56:47.986Z,101043.27
2023-01-11T07:00:26.680Z,101042.77
2023-01-11T07:04:15.587Z,101042.44
2023-01-11T07:07:52.827Z,101047.48
2023-01-11T07:11:38.900Z,101049.39
2023-01-11T07:15:27.672Z,101046.45
2023-01-11T07:19:16.460Z,101048.55
2023-01-11T07:23:05.224Z,101045.92
2023-01-11T07:26:41.077Z,101044.36
2023-01-11T07:29:52.357Z,101040.58
2023-01-11T07:33:41.108Z,101042.31
2023-01-11T07:37:28.075Z,101046.49
2023-01-11T07:41:18.207Z,101043.05
2023-01-11T07:44:59.669Z,101047.00
2023-01-11T07:48:27.615Z,101048.20
2023-01-11T07:52:16.405Z,101047.33
2023-01-11T07:55:44.119Z,101045.21
2023-01-11T07:59:25.689Z,101048.98
2023-01-11T08:03:14.523Z,101055.23
2023-01-11T08:07:03.473Z,101047.05
2023-01-11T08:10:52.162Z,101044.80
2023-01-11T08:14:31.967Z,101048.61
2023-01-11T08:17:58.350Z,101042.55
2023-01-11T08:21:39.956Z,101036.83
2023-01-11T08:25:28.702Z,101032.69
2023-01-11T08:29:17.396Z,101037.76
2023-01-11T08:32:57.169Z,101036.75
2023-01-11T08:36:45.955Z,101035.59
2023-01-11T08:40:34.826Z,101030.08
2023-01-11T08:44:33.599Z,101028.87
2023-01-11T08:48:22.185Z,101030.11
2023-01-11T08:52:11.026Z,101025.98
2023-01-11T08:55:59.718Z,101023.08
2023-01-11T08:59:48.527Z,101027.80
2023-01-11T09:03:37.242Z,101023.67
2023-01-11T09:07:25.988Z,101028.56
2023-01-11T09:11:13.373Z,101025.83
2023-01-11T09:15:02.077Z,101025.17
2023-01-11T09:18:32.594Z,101022.78
2023-01-11T09:22:19.925Z,101019.85
2023-01-11T09:26:08.823Z,101011.22
2023-01-11T09:29:57.581Z,100999.82
2023-01-11T09:33:46.299Z,100996.05
2023-01-11T09:37:35.173Z,100992.25
2023-01-11T09:41:32.789Z,100990.37
2023-01-11T09:45:21.544Z,100984.65
2023-01-11T09:49:10.327Z,100979.29
2023-01-11T09:52:59.116Z,100978.44
2023-01-11T09:56:40.591Z,100983.48
2023-01-11T10:00:28.907Z,100984.37
2023-01-11T10:04:35.655Z,100980.74
2023-01-11T10:18:39.625Z,100978.02
2023-01-11T10:21:11.448Z,100976.65
2023-01-11T10:25:05.916Z,100969.02
2023-01-11T10:28:57.689Z,100960.52
2023-01-11T10:32:55.342Z,100965.22
2023-01-11T10:36:50.131Z,100964.71
2023-01-11T10:40:50.698Z,100965.91
2023-01-11T10:44:41.970Z,100965.39
2023-01-11T10:48:39.690Z,100965.55
2023-01-11T10:52:28.379Z,100958.92
2023-01-11T10:55:43.155Z,100955.45
2023-01-11T10:59:37.712Z,100944.67
2023-01-11T11:03:27.755Z,100938.77
2023-01-11T11:07:11.864Z,100936.87
2023-01-11T11:11:15.856Z,100934.44
2023-01-11T11:14:57.361Z,100917.77
2023-01-11T11:18:35.105Z,100905.77
2023-01-11T11:22:13.557Z,100904.42
2023-01-11T11:25:47.835Z,100902.16
2023-01-11T11:29:29.084Z,100900.97
2023-01-11T11:33:20.722Z,100886.92
2023-01-11T11:37:09.459Z,100883.11
2023-01-11T11:40:50.727Z,100879.82
2023-01-11T11:44:45.179Z,100874.80
2023-01-11T11:48:27.846Z,100867.88
2023-01-11T11:52:15.102Z,100866.49
2023-01-11T11:56:03.816Z,100859.71
2023-01-11T11:59:47.760Z,100858.86
2023-01-11T12:03:39.133Z,100855.05
2023-01-11T12:07:27.943Z,100847.59
2023-01-11T12:11:16.665Z,100843.77
2023-01-11T12:14:58.370Z,100838.75
2023-01-11T12:18:48.616Z,100832.83
2023-01-11T12:22:27.524Z,100827.45
2023-01-11T12:26:25.263Z,100823.80
2023-01-11T12:30:41.174Z,100812.67
2023-01-11T12:34:32.694Z,100806.59
2023-01-11T12:38:42.418Z,100801.04
2023-01-11T12:42:33.801Z,100794.26
2023-01-11T12:46:24.210Z,100798.42
2023-01-11T12:50:17.763Z,100802.58
2023-01-11T12:53:55.538Z,100800.15
2023-01-11T12:58:14.440Z,100798.05
2023-01-11T13:02:18.591Z,100792.32
2023-01-11T13:05:59.021Z,100788.81
2023-01-11T13:10:12.036Z,100782.55
2023-01-11T13:14:20.083Z,100766.05
2023-01-11T13:18:18.598Z,100765.16
2023-01-11T13:22:13.307Z,100757.86
2023-01-11T13:26:08.049Z,100751.95
2023-01-11T13:30:14.838Z,100760.27
2023-01-11T13:34:06.733Z,100755.91
2023-01-11T13:38:10.402Z,100749.66
2023-01-11T13:42:08.071Z,100739.76
2023-01-11T13:46:05.579Z,100740.08
2023-01-11T13:49:52.900Z,100738.16
2023-01-11T13:53:41.698Z,100743.18
2023-01-11T13:57:31.715Z,100748.89
2023-01-11T14:01:20.622Z,100744.71
2023-01-11T14:05:04.479Z,100740.88
2023-01-11T14:08:57.946Z,100746.80
2023-01-11T14:12:54.253Z,100743.30
2023-01-11T14:16:45.783Z,100742.77
2023-01-11T14:20:40.291Z,100736.85
2023-01-11T14:24:31.096Z,100739.45
2023-01-11T14:28:20.885Z,100735.27
2023-01-11T14:32:14.107Z,100735.25
2023-01-11T14:36:11.864Z,100733.34
2023-01-11T14:39:57.229Z,100727.08
2023-01-11T14:44:10.203Z,100719.24
2023-01-11T14:48:04.683Z,100727.23
2023-01-11T14:51:53.607Z,100726.52
2023-01-11T14:55:45.543Z,100719.73
2023-01-11T14:59:21.550Z,100724.75
2023-01-11T15:03:13.421Z,100720.75
2023-01-11T15:06:54.859Z,100714.32
2023-01-11T15:10:44.858Z,100709.29
2023-01-11T15:14:36.485Z,100703.02
2023-01-11T15:18:13.111Z,100692.43
2023-01-11T15:22:04.634Z,100689.99
2023-01-11T15:25:41.714Z,100682.35
2023-01-11T15:29:42.259Z,100672.11
2023-01-11T15:33:31.062Z,100671.06
2023-01-11T15:37:28.369Z,100666.70
2023-01-11T15:41:17.630Z,100671.39
2023-01-11T15:45:15.060Z,100668.09
2023-01-11T15:49:25.049Z,100668.44
2023-01-11T15:53:22.627Z,100655.59
2023-01-11T15:56:51.894Z,100656.98
2023-01-11T16:00:51.282Z,100656.27
2023-01-11T16:04:43.018Z,100657.31
2023-01-11T16:08:37.647Z,100653.66
2023-01-11T16:12:24.487Z,100654.85
2023-01-11T16:16:15.161Z,100652.77
2023-01-11T16:19:46.992Z,100653.46
2023-01-11T16:23:38.733Z,100654.69
2023-01-11T16:27:09.532Z,100657.30
2023-01-11T16:31:00.451Z,100660.59
2023-01-11T16:34:49.230Z,100657.46
2023-01-11T16:38:37.996Z,100657.28
2023-01-11T16:42:19.489Z,100662.14
2023-01-11T16:46:16.945Z,100663.84
2023-01-11T16:50:07.994Z,100665.59
2023-01-11T16:53:59.591Z,100669.23
2023-01-11T16:57:48.348Z,100667.16
2023-01-11T17:01:38.360Z,100664.23
2023-01-11T17:05:29.687Z,100654.51
2023-01-11T17:09:24.207Z,100654.68
2023-01-11T17:13:12.896Z,100650.17
2023-01-11T17:17:01.930Z,100635.63
2023-01-11T17:20:33.402Z,100632.86
2023-01-11T17:24:22.194Z,100633.73
2023-01-11T17:28:13.645Z,100635.30
2023-01-11T17:32:02.430Z,100638.09
2023-01-11T17:35:51.293Z,100636.72
2023-01-11T17:39:39.974Z,100633.77
2023-01-11T17:43:26.920Z,100627.89
2023-01-11T17:47:17.277Z,100620.60
2023-01-11T17:51:08.703Z,100621.48
2023-01-11T17:55:03.399Z,100625.29
2023-01-11T17:58:54.894Z,100622.89
2023-01-11T18:02:52.460Z,100620.98
2023-01-11T18:06:30.642Z,100615.25
2023-01-11T18:10:15.842Z,100615.26
2023-01-11T18:14:10.222Z,100616.47
2023-01-11T18:18:12.558Z,100611.97
2023-01-11T18:22:07.268Z,100612.13
2023-01-11T18:25:49.482Z,100607.11
2023-01-11T18:29:28.030Z,100598.61
2023-01-11T18:32:20.094Z,100600.52
2023-01-11T18:36:14.766Z,100590.98
2023-01-11T18:40:03.458Z,100589.41
2023-01-11T18:43:42.204Z,100580.40
2023-01-11T18:47:30.940Z,100572.92
2023-01-11T18:51:10.832Z,100568.94
2023-01-11T18:54:59.538Z,100576.41
2023-01-11T18:58:48.255Z,100581.77
2023-01-11T19:02:38.188Z,100583.86
2023-01-11T19:06:27.821Z,100581.94
2023-01-11T19:10:16.542Z,100572.57
2023-01-11T19:13:33.923Z,100569.80
2023-01-11T19:16:55.765Z,100569.27
2023-01-11T19:20:34.867Z,100566.50
2023-01-11T19:23:25.381Z,100559.91
2023-01-11T19:26:27.702Z,100552.27
2023-01-11T19:30:06.387Z,100555.92
2023-01-11T19:33:55.101Z,100558.70
2023-01-11T19:37:33.769Z,100554.17
2023-01-11T19:41:22.551Z,100550.70
2023-01-11T19:45:13.941Z,100544.45
2023-01-11T19:49:02.759Z,100548.09
2023-01-11T19:52:51.483Z,100548.11
2023-01-11T19:56:42.879Z,100546.02
2023-01-11T20:00:31.636Z,100548.27
2023-01-11T20:04:20.357Z,100546.52
2023-01-11T20:07:59.582Z,100540.64
2023-01-11T20:11:38.104Z,100538.90
2023-01-11T20:15:26.881Z,100535.60
2023-01-11T20:18:29.265Z,100532.48
2023-01-11T20:21:29.743Z,100526.77
2023-01-11T20:24:31.213Z,100523.98
2023-01-11T20:28:02.780Z,100524.52
2023-01-11T20:31:50.731Z,100526.61
2023-01-11T20:35:24.257Z,100527.13
2023-01-11T20:39:03.991Z,100526.78
2023-01-11T20:42:29.027Z,100518.45
2023-01-11T20:46:00.209Z,100515.51
2023-01-11T20:49:31.220Z,100517.05
2023-01-11T20:53:20.000Z,100512.73
2023-01-11T20:57:08.852Z,100506.67
2023-01-11T21:00:50.477Z,100506.48
2023-01-11T21:04:30.651Z,100509.10
2023-01-11T21:08:09.145Z,100504.59
2023-01-11T21:11:50.572Z,100504.95
2023-01-11T21:15:28.254Z,100494.02
2023-01-11T21:18:43.307Z,100492.64
2023-01-11T21:22:22.477Z,100491.08
2023-01-11T21:26:11.176Z,100492.62
2023-01-11T21:29:59.912Z,100491.59
2023-01-11T21:33:48.623Z,100487.60
2023-01-11T21:37:37.454Z,100491.08
2023-01-11T21:41:22.536Z,100496.11
2023-01-11T21:44:37.496Z,100493.35
2023-01-11T21:48:08.656Z,100485.88
2023-01-11T21:51:43.014Z,100481.54
2023-01-11T21:55:29.135Z,100485.53
2023-01-11T21:59:17.836Z,100486.42
2023-01-11T22:03:06.659Z,100485.53
2023-01-11T22:06:53.855Z,100489.02
2023-01-11T22:10:42.886Z,100494.05
2023-01-11T22:14:31.737Z,100495.09
2023-01-11T22:18:20.453Z,100487.98
2023-01-11T22:22:12.153Z,100485.02
2023-01-11T22:25:40.692Z,100479.82
2023-01-11T22:29:31.840Z,100477.05
2023-01-11T22:33:20.590Z,100477.41
2023-01-11T22:37:09.418Z,100482.27
2023-01-11T22:40:58.299Z,100475.66
2023-01-11T22:44:47.091Z,100478.27
2023-01-11T22:48:28.500Z,100475.84
2023-01-11T22:52:07.322Z,100475.16
2023-01-11T22:55:48.729Z,100472.90
2023-01-11T22:59:37.635Z,100472.55
2023-01-11T23:03:26.424Z,100468.55
2023-01-11T23:07:11.811Z,100471.69
2023-01-11T23:11:00.546Z,100480.19
2023-01-11T23:14:41.717Z,100474.64
2023-01-11T23:18:15.663Z,100477.42
2023-01-11T23:22:04.405Z,100472.03
2023-01-11T23:25:53.114Z,100475.15
2023-01-11T23:29:41.827Z,100472.89
2023-01-11T23:33:30.567Z,100476.89
2023-01-11T23:37:12.105Z,100471.68
2023-01-11T23:40:58.972Z,100471.52
2023-01-11T23:44:47.665Z,100473.60
2023-01-11T23:48:36.450Z,100478.79
2023-01-11T23:52:23.829Z,100480.02
2023-01-11T23:56:12.555Z,100475.66
